createdAt,value
2023-05-14T00:01:43.834Z,24.20
2023-05-14T00:04:18.311Z,23.20
2023-05-14T00:06:47.896Z,22.05
2023-05-14T00:09:15.901Z,22.13
2023-05-14T00:11:44.042Z,21.77
2023-05-14T00:14:12.345Z,20.60
2023-05-14T00:16:44.230Z,21.95
2023-05-14T00:19:12.078Z,22.52
2023-05-14T00:21:42.546Z,23.10
2023-05-14T00:24:30.149Z,22.50
2023-05-14T00:26:58.611Z,22.42
2023-05-14T00:29:27.521Z,21.05
2023-05-14T00:31:57.458Z,22.15
2023-05-14T00:34:43.531Z,20.90
2023-05-14T00:37:15.864Z,22.65
2023-05-14T00:39:44.810Z,21.02
2023-05-14T00:42:13.760Z,21.50
2023-05-14T00:44:41.169Z,21.65
2023-05-14T00:47:11.831Z,21.58
2023-05-14T00:49:41.068Z,22.23
2023-05-14T00:52:09.036Z,22.48
2023-05-14T00:54:36.681Z,20.90
2023-05-14T00:57:05.484Z,22.38
2023-05-14T00:59:33.114Z,22.95
2023-05-14T01:02:00.666Z,22.23
2023-05-14T01:04:28.231Z,23.33
2023-05-14T01:07:09.086Z,23.83
2023-05-14T01:09:58.330Z,23.48
2023-05-14T01:12:48.948Z,22.52
2023-05-14T01:15:33.729Z,22.00
2023-05-14T01:18:10.732Z,22.15
2023-05-14T01:20:40.302Z,22.25
2023-05-14T01:23:07.698Z,22.63
2023-05-14T01:25:36.293Z,24.00
2023-05-14T01:28:10.030Z,22.00
2023-05-14T01:30:43.828Z,21.02
2023-05-14T01:33:14.787Z,23.27
2023-05-14T01:35:42.424Z,22.10
2023-05-14T01:38:12.824Z,22.25
2023-05-14T01:40:40.938Z,20.60
2023-05-14T01:43:09.506Z,20.65
2023-05-14T01:45:39.162Z,21.60
2023-05-14T01:48:06.964Z,21.88
2023-05-14T01:50:34.308Z,21.42
2023-05-14T01:53:02.104Z,23.88
2023-05-14T01:55:29.565Z,21.75
2023-05-14T01:57:57.199Z,22.20
2023-05-14T02:00:28.397Z,23.20
2023-05-14T02:02:56.674Z,24.92
2023-05-14T02:05:24.103Z,25.33
2023-05-14T02:07:51.532Z,26.10
2023-05-14T02:10:18.923Z,24.67
2023-05-14T02:12:46.260Z,27.15
2023-05-14T02:15:15.647Z,25.05
2023-05-14T02:17:44.101Z,26.08
2023-05-14T02:20:14.952Z,24.88
2023-05-14T02:22:46.458Z,26.45
2023-05-14T02:25:14.263Z,25.17
2023-05-14T02:27:41.861Z,26.38
2023-05-14T02:30:10.326Z,25.73
2023-05-14T02:32:38.439Z,27.55
2023-05-14T02:35:06.551Z,26.98
2023-05-14T02:37:37.590Z,29.17
2023-05-14T02:40:05.414Z,29.75
2023-05-14T02:42:32.777Z,29.52
2023-05-14T02:45:00.273Z,29.05
2023-05-14T02:47:27.731Z,28.50
2023-05-14T02:49:55.276Z,29.80
2023-05-14T02:52:22.817Z,30.63
2023-05-14T02:54:50.453Z,29.65
2023-05-14T02:57:17.812Z,30.85
2023-05-14T02:59:45.310Z,31.13
2023-05-14T03:02:13.503Z,30.33
2023-05-14T03:04:41.547Z,28.80
2023-05-14T03:07:09.003Z,30.30
2023-05-14T03:09:38.285Z,28.15
2023-05-14T03:12:09.566Z,28.27
2023-05-14T03:14:37.054Z,28.38
2023-05-14T03:17:04.571Z,28.77
2023-05-14T03:19:33.632Z,27.25
2023-05-14T03:22:01.383Z,27.60
2023-05-14T03:24:28.704Z,27.67
2023-05-14T03:26:56.160Z,26.23
2023-05-14T03:29:23.502Z,27.02
2023-05-14T03:31:51.184Z,28.23
2023-05-14T03:34:19.896Z,27.70
2023-05-14T03:36:49.848Z,28.45
2023-05-14T03:39:19.864Z,28.75
2023-05-14T03:41:47.907Z,30.38
2023-05-14T03:44:16.188Z,29.23
2023-05-14T03:46:43.849Z,29.02
2023-05-14T03:49:11.590Z,30.27
2023-05-14T03:51:48.310Z,31.77
2023-05-14T03:54:15.900Z,30.77
2023-05-14T03:56:43.429Z,31.45
2023-05-14T03:59:10.837Z,31.10
2023-05-14T04:01:38.952Z,30.38
2023-05-14T04:04:06.752Z,28.33
2023-05-14T04:06:34.563Z,29.00
2023-05-14T04:09:02.434Z,29.70
2023-05-14T04:11:30.284Z,29.63
2023-05-14T04:13:57.492Z,29.10
2023-05-14T04:16:24.879Z,30.38
2023-05-14T04:18:52.680Z,28.30
2023-05-14T04:21:20.160Z,31.05
2023-05-14T04:23:47.798Z,28.85
2023-05-14T04:26:15.455Z,28.83
2023-05-14T04:28:42.909Z,28.08
2023-05-14T04:31:10.503Z,29.67
2023-05-14T04:33:40.206Z,28.17
2023-05-14T04:36:07.780Z,29.23
2023-05-14T04:38:35.236Z,28.90
2023-05-14T04:41:04.457Z,28.30
2023-05-14T04:43:31.910Z,29.48
2023-05-14T04:45:59.752Z,30.38
2023-05-14T04:48:27.313Z,29.55
2023-05-14T04:50:54.682Z,29.88
2023-05-14T04:53:22.161Z,28.13
2023-05-14T04:55:49.474Z,31.15
2023-05-14T04:58:18.947Z,30.58
2023-05-14T05:00:47.629Z,30.30
2023-05-14T05:03:15.119Z,28.70
2023-05-14T05:05:42.582Z,30.50
2023-05-14T05:08:11.681Z,30.13
2023-05-14T05:10:42.327Z,30.67
2023-05-14T05:13:09.962Z,29.42
2023-05-14T05:15:37.624Z,29.10
2023-05-14T05:18:06.491Z,27.08
2023-05-14T05:20:34.068Z,29.67
2023-05-14T05:23:01.391Z,28.50
2023-05-14T05:25:28.895Z,28.92
2023-05-14T05:27:56.231Z,28.95
2023-05-14T05:30:24.014Z,28.08
2023-05-14T05:32:51.766Z,26.98
2023-05-14T05:35:19.279Z,25.83
2023-05-14T05:37:46.827Z,24.90
2023-05-14T05:40:14.562Z,27.90
2023-05-14T05:42:42.714Z,24.92
2023-05-14T05:45:10.736Z,24.98
2023-05-14T05:47:38.737Z,25.50
2023-05-14T05:50:07.942Z,25.35
2023-05-14T05:52:35.653Z,25.45
2023-05-14T05:55:03.988Z,26.30
2023-05-14T05:57:32.882Z,23.13
2023-05-14T06:00:00.233Z,26.67
2023-05-14T06:02:27.672Z,25.67
2023-05-14T06:04:55.153Z,23.77
2023-05-14T06:07:22.540Z,24.65
2023-05-14T06:09:49.997Z,26.42
2023-05-14T06:12:17.512Z,25.92
2023-05-14T06:14:44.996Z,24.42
2023-05-14T06:17:12.347Z,22.42
2023-05-14T06:19:39.952Z,22.85
2023-05-14T06:22:07.399Z,23.70
2023-05-14T06:24:37.824Z,25.05
2023-05-14T06:27:05.494Z,25.38
2023-05-14T06:29:32.842Z,24.70
2023-05-14T06:32:04.741Z,27.00
2023-05-14T06:34:32.545Z,27.63
2023-05-14T06:37:00.376Z,29.20
2023-05-14T06:39:27.775Z,31.25
2023-05-14T06:41:55.177Z,31.15
2023-05-14T06:44:22.661Z,32.78
2023-05-14T06:46:50.002Z,31.83
2023-05-14T06:49:17.859Z,32.83
2023-05-14T06:51:49.199Z,29.92
2023-05-14T06:54:17.138Z,32.95
2023-05-14T06:56:44.543Z,33.22
2023-05-14T06:59:12.192Z,33.80
2023-05-14T07:01:39.643Z,35.03
2023-05-14T07:04:07.177Z,33.72
2023-05-14T07:06:34.774Z,34.38
2023-05-14T07:09:02.618Z,35.03
2023-05-14T07:11:33.499Z,34.15
2023-05-14T07:14:01.079Z,32.58
2023-05-14T07:16:28.489Z,32.92
2023-05-14T07:18:56.233Z,32.92
2023-05-14T07:21:23.712Z,33.22
2023-05-14T07:23:51.372Z,31.92
2023-05-14T07:26:18.959Z,33.53
2023-05-14T07:28:46.342Z,32.97
2023-05-14T07:31:13.856Z,32.75
2023-05-14T07:33:41.331Z,31.27
2023-05-14T07:36:09.239Z,31.52
2023-05-14T07:38:36.634Z,31.17
2023-05-14T07:41:04.918Z,33.75
2023-05-14T07:43:32.291Z,30.70
2023-05-14T07:45:59.725Z,31.80
2023-05-14T07:48:27.145Z,32.45
2023-05-14T07:50:54.697Z,31.55
2023-05-14T07:53:22.126Z,33.20
2023-05-14T07:55:49.628Z,32.42
2023-05-14T07:58:16.964Z,32.70
2023-05-14T08:00:45.444Z,30.50
2023-05-14T08:06:05.854Z,28.67
2023-05-14T08:08:33.350Z,29.83
2023-05-14T08:11:03.384Z,29.15
2023-05-14T08:13:33.261Z,28.00
2023-05-14T08:16:00.668Z,28.35
2023-05-14T08:18:28.044Z,28.98
2023-05-14T08:20:56.082Z,28.90
2023-05-14T08:23:23.488Z,30.15
2023-05-14T08:25:50.822Z,29.38
2023-05-14T08:28:18.171Z,28.60
2023-05-14T08:30:45.961Z,28.48
2023-05-14T08:33:13.436Z,27.67
2023-05-14T08:35:43.849Z,27.23
2023-05-14T08:38:11.158Z,26.38
2023-05-14T08:40:39.892Z,26.50
2023-05-14T08:43:11.531Z,26.88
2023-05-14T08:45:42.312Z,25.20
2023-05-14T08:48:12.207Z,25.30
2023-05-14T08:50:39.652Z,24.73
2023-05-14T08:53:06.965Z,25.13
2023-05-14T08:55:34.665Z,24.08
2023-05-14T08:58:02.065Z,23.70
2023-05-14T09:00:29.527Z,22.83
2023-05-14T09:02:56.819Z,23.48
2023-05-14T09:05:24.536Z,22.13
2023-05-14T09:07:51.900Z,21.05
2023-05-14T09:10:24.937Z,20.90
2023-05-14T09:12:52.584Z,20.30
2023-05-14T09:15:19.937Z,21.15
2023-05-14T09:17:48.699Z,20.77
2023-05-14T09:20:16.538Z,20.77
2023-05-14T09:22:43.916Z,19.98
2023-05-14T09:25:14.883Z,17.92
2023-05-14T09:27:42.267Z,18.23
2023-05-14T09:30:13.822Z,17.27
2023-05-14T09:32:44.141Z,18.02
2023-05-14T09:35:22.898Z,16.27
2023-05-14T09:37:52.300Z,15.80
2023-05-14T09:40:21.703Z,15.27
2023-05-14T09:42:49.610Z,15.68
2023-05-14T09:45:17.558Z,16.33
2023-05-14T09:47:45.448Z,19.60
2023-05-14T09:50:13.037Z,16.83
2023-05-14T09:52:42.334Z,12.80
2023-05-14T09:55:09.977Z,15.55
2023-05-14T09:57:37.487Z,14.55
2023-05-14T10:00:05.388Z,14.95
2023-05-14T10:02:41.168Z,14.95
2023-05-14T10:05:09.591Z,13.63
2023-05-14T10:07:43.075Z,13.63
2023-05-14T10:10:14.086Z,14.15
2023-05-14T10:12:41.870Z,13.75
2023-05-14T10:15:19.970Z,13.15
2023-05-14T10:17:51.731Z,11.75
2023-05-14T10:20:19.284Z,12.38
2023-05-14T10:22:47.096Z,13.27
2023-05-14T10:25:14.952Z,14.10
2023-05-14T10:27:42.946Z,12.23
2023-05-14T10:30:13.820Z,13.55
2023-05-14T10:32:42.095Z,12.23
2023-05-14T10:35:22.193Z,11.52
2023-05-14T10:37:51.966Z,10.80
2023-05-14T10:40:19.578Z,10.55
2023-05-14T10:42:47.552Z,10.82
2023-05-14T10:45:15.861Z,10.43
2023-05-14T10:47:45.991Z,10.55
2023-05-14T10:50:15.380Z,10.90
2023-05-14T10:52:44.290Z,11.10
2023-05-14T10:55:15.739Z,9.75
2023-05-14T10:57:45.133Z,9.50
2023-05-14T11:00:14.198Z,9.27
2023-05-14T11:02:43.442Z,9.65
2023-05-14T11:05:14.318Z,9.98
2023-05-14T11:07:47.007Z,11.20
2023-05-14T11:12:44.190Z,10.35
2023-05-14T11:15:13.833Z,11.30
2023-05-14T11:17:43.114Z,10.13
2023-05-14T11:20:11.818Z,10.60
2023-05-14T11:22:41.125Z,9.18
2023-05-14T11:25:10.984Z,9.27
2023-05-14T11:27:40.376Z,9.80
2023-05-14T11:30:17.906Z,9.52
2023-05-14T11:32:47.265Z,9.40
2023-05-14T11:35:15.485Z,8.73
2023-05-14T11:37:43.474Z,8.30
2023-05-14T11:40:18.558Z,9.52
2023-05-14T11:42:46.209Z,9.88
2023-05-14T11:45:14.512Z,9.93
2023-05-14T11:47:42.972Z,9.38
2023-05-14T11:50:11.292Z,8.40
2023-05-14T11:52:42.301Z,9.23
2023-05-14T11:55:13.226Z,10.13
2023-05-14T11:57:41.382Z,8.90
2023-05-14T12:00:13.491Z,8.77
2023-05-14T12:02:40.999Z,8.52
2023-05-14T12:05:09.177Z,8.75
2023-05-14T12:07:38.834Z,8.40
2023-05-14T12:10:06.571Z,8.48
2023-05-14T12:12:37.680Z,7.93
2023-05-14T12:15:17.190Z,7.90
2023-05-14T12:17:51.749Z,8.10
2023-05-14T12:20:19.608Z,7.60
2023-05-14T12:22:47.020Z,6.95
2023-05-14T12:25:15.457Z,7.65
2023-05-14T12:27:45.264Z,8.38
2023-05-14T12:32:45.962Z,8.20
2023-05-14T12:35:22.604Z,7.68
2023-05-14T12:37:50.653Z,9.75
2023-05-14T12:40:18.125Z,7.32
2023-05-14T12:42:45.747Z,7.70
2023-05-14T12:45:13.086Z,6.40
2023-05-14T12:47:40.491Z,6.32
2023-05-14T12:50:08.473Z,7.20
2023-05-14T12:52:39.795Z,7.32
2023-05-14T12:55:10.317Z,6.03
2023-05-14T12:57:39.309Z,7.90
2023-05-14T13:00:13.980Z,7.72
2023-05-14T13:02:42.761Z,7.55
2023-05-14T13:05:12.127Z,7.10
2023-05-14T13:07:39.697Z,6.80
2023-05-14T13:10:07.607Z,6.50
2023-05-14T13:12:35.034Z,7.95
2023-05-14T13:15:02.549Z,8.82
2023-05-14T13:17:29.967Z,7.88
2023-05-14T13:19:57.438Z,7.22
2023-05-14T13:22:24.835Z,8.05
2023-05-14T13:24:52.346Z,8.15
2023-05-14T13:27:19.693Z,8.15
2023-05-14T13:29:46.971Z,7.60
2023-05-14T13:32:14.323Z,7.88
2023-05-14T13:34:41.664Z,8.18
2023-05-14T13:37:08.997Z,8.10
2023-05-14T13:39:36.419Z,7.35
2023-05-14T13:42:05.149Z,8.05
2023-05-14T13:44:32.518Z,7.88
2023-05-14T13:47:00.139Z,8.10
2023-05-14T13:49:27.560Z,8.30
2023-05-14T13:51:54.909Z,8.07
2023-05-14T13:54:22.352Z,8.02
2023-05-14T13:56:49.618Z,7.95
2023-05-14T13:59:17.038Z,8.00
2023-05-14T14:01:44.689Z,7.82
2023-05-14T14:04:12.036Z,8.15
2023-05-14T14:06:39.326Z,7.15
2023-05-14T14:09:07.091Z,7.72
2023-05-14T14:11:37.188Z,7.68
2023-05-14T14:14:06.097Z,7.28
2023-05-14T14:16:33.625Z,7.53
2023-05-14T14:19:01.067Z,7.38
2023-05-14T14:21:28.440Z,7.45
2023-05-14T14:23:55.950Z,7.35
2023-05-14T14:26:23.414Z,7.35
2023-05-14T14:28:50.819Z,7.97
2023-05-14T14:31:18.242Z,7.35
2023-05-14T14:33:45.815Z,6.53
2023-05-14T14:36:13.492Z,6.55
2023-05-14T14:38:40.889Z,7.03
2023-05-14T14:41:09.964Z,6.63
2023-05-14T14:43:41.702Z,6.88
2023-05-14T14:46:09.806Z,7.00
2023-05-14T14:48:38.037Z,6.55
2023-05-14T14:51:06.889Z,6.70
2023-05-14T14:53:36.092Z,6.18
2023-05-14T14:56:03.952Z,5.32
2023-05-14T14:58:31.365Z,7.03
2023-05-14T15:00:59.254Z,6.45
2023-05-14T15:03:27.034Z,6.85
2023-05-14T15:05:54.616Z,6.88
2023-05-14T15:08:26.524Z,6.90
2023-05-14T15:10:57.223Z,6.35
2023-05-14T15:13:25.082Z,6.88
2023-05-14T15:15:52.938Z,6.68
2023-05-14T15:18:21.718Z,6.20
2023-05-14T15:20:49.174Z,6.38
2023-05-14T15:23:16.505Z,7.20
2023-05-14T15:25:44.226Z,5.90
2023-05-14T15:28:11.633Z,6.60
2023-05-14T15:30:39.033Z,6.18
2023-05-14T15:33:08.718Z,5.85
2023-05-14T15:35:36.733Z,5.93
2023-05-14T15:38:04.359Z,6.32
2023-05-14T15:40:33.145Z,6.07
2023-05-14T15:43:00.516Z,6.22
2023-05-14T15:45:28.258Z,5.88
2023-05-14T15:47:55.614Z,6.40
2023-05-14T15:50:23.353Z,7.10
2023-05-14T15:52:50.920Z,6.50
2023-05-14T15:55:18.338Z,6.35
2023-05-14T15:57:45.887Z,6.95
2023-05-14T16:00:14.460Z,6.75
2023-05-14T16:02:42.091Z,6.55
2023-05-14T16:05:09.780Z,5.97
2023-05-14T16:07:37.576Z,7.50
2023-05-14T16:10:06.075Z,6.63
2023-05-14T16:12:33.452Z,6.57
2023-05-14T16:15:01.024Z,8.55
2023-05-14T16:17:30.444Z,7.65
2023-05-14T16:19:57.801Z,6.50
2023-05-14T16:22:25.125Z,6.53
2023-05-14T16:24:52.477Z,6.35
2023-05-14T16:27:20.046Z,6.10
2023-05-14T16:29:47.420Z,5.93
2023-05-14T16:32:14.781Z,5.97
2023-05-14T16:34:47.465Z,6.60
2023-05-14T16:39:42.626Z,7.00
2023-05-14T16:42:09.979Z,6.10
2023-05-14T16:44:37.368Z,6.25
2023-05-14T16:47:04.936Z,6.38
2023-05-14T16:49:32.280Z,7.25
2023-05-14T16:51:59.643Z,6.65
2023-05-14T16:54:26.968Z,7.00
2023-05-14T16:56:54.284Z,6.65
2023-05-14T16:59:21.660Z,6.82
2023-05-14T17:01:49.182Z,7.20
2023-05-14T17:04:17.773Z,7.25
2023-05-14T17:06:46.819Z,7.13
2023-05-14T17:09:14.111Z,7.45
2023-05-14T17:11:41.512Z,7.38
2023-05-14T17:14:08.831Z,7.30
2023-05-14T17:16:36.363Z,7.22
2023-05-14T17:19:03.699Z,7.88
2023-05-14T17:21:31.461Z,7.18
2023-05-14T17:23:58.938Z,8.50
2023-05-14T17:26:26.443Z,8.15
2023-05-14T17:28:53.716Z,7.32
2023-05-14T17:31:22.341Z,7.88
2023-05-14T17:33:49.831Z,8.77
2023-05-14T17:36:17.240Z,8.73
2023-05-14T17:38:47.857Z,10.30
2023-05-14T17:41:15.195Z,8.00
2023-05-14T17:43:42.670Z,8.80
2023-05-14T17:46:09.956Z,8.70
2023-05-14T17:48:37.301Z,8.20
2023-05-14T17:51:04.634Z,8.00
2023-05-14T17:53:31.945Z,7.95
2023-05-14T17:55:59.279Z,8.07
2023-05-14T17:58:26.587Z,7.57
2023-05-14T18:00:53.917Z,8.25
2023-05-14T18:03:21.656Z,7.90
2023-05-14T18:05:49.064Z,7.88
2023-05-14T18:08:16.484Z,8.77
2023-05-14T18:10:43.959Z,7.85
2023-05-14T18:13:11.282Z,7.18
2023-05-14T18:15:38.835Z,7.28
2023-05-14T18:18:06.460Z,7.22
2023-05-14T18:20:35.533Z,7.93
2023-05-14T18:23:03.315Z,7.63
2023-05-14T18:25:30.758Z,7.47
2023-05-14T18:27:58.307Z,7.85
2023-05-14T18:30:25.599Z,7.90
2023-05-14T18:32:53.057Z,8.60
2023-05-14T18:35:21.145Z,8.02
2023-05-14T18:37:48.479Z,10.05
2023-05-14T18:40:17.811Z,12.50
2023-05-14T18:42:46.098Z,9.65
2023-05-14T18:45:13.452Z,8.20
2023-05-14T18:47:41.104Z,7.57
2023-05-14T18:50:09.054Z,8.73
2023-05-14T18:52:36.387Z,7.65
2023-05-14T18:55:03.889Z,8.35
2023-05-14T18:57:32.845Z,8.50
2023-05-14T19:00:02.059Z,8.50
2023-05-14T19:02:29.696Z,8.35
2023-05-14T19:04:57.140Z,9.18
2023-05-14T19:07:24.498Z,8.73
2023-05-14T19:09:52.119Z,9.85
2023-05-14T19:12:19.437Z,10.55
2023-05-14T19:14:46.753Z,10.15
2023-05-14T19:17:14.098Z,9.95
2023-05-14T19:19:43.857Z,10.18
2023-05-14T19:22:11.166Z,9.68
2023-05-14T19:24:38.532Z,10.20
2023-05-14T19:27:06.115Z,10.35
2023-05-14T19:29:34.072Z,10.07
2023-05-14T19:32:01.414Z,11.43
2023-05-14T19:34:28.763Z,11.88
2023-05-14T19:36:56.297Z,10.57
2023-05-14T19:39:23.639Z,11.23
2023-05-14T19:41:51.002Z,10.68
2023-05-14T19:44:20.296Z,12.15
2023-05-14T19:46:47.639Z,12.30
2023-05-14T19:49:15.116Z,13.02
2023-05-14T19:51:48.348Z,12.88
2023-05-14T19:54:15.731Z,12.93
2023-05-14T19:56:43.128Z,12.80
2023-05-14T19:59:10.470Z,13.35
2023-05-14T20:01:37.775Z,14.23
2023-05-14T20:04:05.217Z,13.70
2023-05-14T20:06:34.270Z,14.65
2023-05-14T20:09:01.998Z,16.83
2023-05-14T20:11:29.350Z,16.08
2023-05-14T20:13:56.715Z,15.15
2023-05-14T20:16:24.094Z,15.10
2023-05-14T20:18:54.963Z,16.08
2023-05-14T20:21:22.308Z,15.68
2023-05-14T20:23:49.814Z,16.25
2023-05-14T20:26:17.364Z,16.55
2023-05-14T20:28:44.673Z,16.20
2023-05-14T20:31:12.092Z,16.50
2023-05-14T20:33:39.482Z,16.40
2023-05-14T20:36:07.561Z,16.25
2023-05-14T20:38:35.184Z,16.17
2023-05-14T20:41:05.780Z,15.93
2023-05-14T20:43:33.184Z,17.10
2023-05-14T20:46:00.831Z,17.15
2023-05-14T20:48:28.239Z,17.30
2023-05-14T20:50:55.853Z,17.33
2023-05-14T20:53:23.935Z,16.52
2023-05-14T20:55:51.246Z,17.95
2023-05-14T20:58:27.205Z,16.17
2023-05-14T21:00:54.622Z,15.73
2023-05-14T21:03:22.728Z,15.68
2023-05-14T21:05:50.177Z,16.13
2023-05-14T21:08:17.522Z,15.77
2023-05-14T21:10:44.894Z,16.20
2023-05-14T21:13:12.135Z,16.65
2023-05-14T21:15:39.794Z,16.83
2023-05-14T21:18:08.240Z,16.10
2023-05-14T21:20:35.662Z,15.13
2023-05-14T21:23:03.003Z,15.02
2023-05-14T21:25:30.510Z,14.70
2023-05-14T21:27:57.872Z,16.50
2023-05-14T21:30:25.177Z,16.00
2023-05-14T21:32:52.728Z,15.60
2023-05-14T21:35:20.077Z,15.50
2023-05-14T21:37:47.548Z,14.95
2023-05-14T21:40:14.992Z,16.95
2023-05-14T21:42:42.565Z,16.58
2023-05-14T21:45:10.485Z,16.75
2023-05-14T21:47:38.213Z,19.27
2023-05-14T21:50:06.876Z,18.52
2023-05-14T21:52:34.221Z,18.83
2023-05-14T21:55:04.033Z,19.20
2023-05-14T21:57:34.256Z,20.33
2023-05-14T22:00:02.412Z,19.77
2023-05-14T22:02:29.757Z,19.42
2023-05-14T22:04:58.420Z,19.42
2023-05-14T22:07:25.782Z,19.95
2023-05-14T22:09:53.071Z,19.17
2023-05-14T22:12:20.482Z,19.77
2023-05-14T22:14:47.879Z,21.25
2023-05-14T22:17:15.237Z,20.50
2023-05-14T22:19:42.563Z,21.02
2023-05-14T22:22:10.057Z,21.67
2023-05-14T22:24:37.790Z,21.63
2023-05-14T22:27:05.360Z,22.17
2023-05-14T22:29:32.676Z,21.90
2023-05-14T22:31:59.942Z,21.83
2023-05-14T22:34:27.322Z,21.85
2023-05-14T22:36:54.723Z,23.35
2023-05-14T22:39:22.143Z,23.40
2023-05-14T22:41:55.035Z,25.35
2023-05-14T22:44:23.425Z,23.45
2023-05-14T22:46:53.892Z,23.73
2023-05-14T22:49:21.477Z,23.52
2023-05-14T22:51:54.405Z,25.60
2023-05-14T22:56:50.049Z,24.85
2023-05-14T22:59:17.470Z,24.77
2023-05-14T23:01:44.990Z,26.30
2023-05-14T23:04:12.357Z,24.08
2023-05-14T23:06:39.731Z,24.23
2023-05-14T23:09:06.998Z,26.20
2023-05-14T23:11:34.410Z,25.73
2023-05-14T23:14:01.682Z,24.70
2023-05-14T23:16:29.085Z,22.08
2023-05-14T23:18:56.497Z,24.08
2023-05-14T23:21:24.050Z,24.30
2023-05-14T23:23:51.843Z,26.33
2023-05-14T23:26:19.149Z,24.50
2023-05-14T23:28:47.432Z,24.90
2023-05-14T23:31:14.826Z,27.02
2023-05-14T23:33:44.559Z,26.02
2023-05-14T23:36:12.066Z,24.08
2023-05-14T23:38:39.439Z,26.15
2023-05-14T23:41:06.765Z,25.95
2023-05-14T23:43:34.078Z,26.15
2023-05-14T23:46:01.642Z,25.50
2023-05-14T23:48:29.084Z,24.88
2023-05-14T23:50:56.366Z,24.60
2023-05-14T23:53:23.718Z,27.00
2023-05-14T23:55:51.185Z,25.90
2023-05-14T23:58:18.487Z,25.75
